createdAt,value
2017-09-17T00:00:43.611Z,98.90
2017-09-17T00:03:50.903Z,99.30
2017-09-17T00:06:56.120Z,99.40
2017-09-17T00:10:01.188Z,99.10
2017-09-17T00:13:06.794Z,99.10
2017-09-17T00:16:13.339Z,99.10
2017-09-17T00:19:18.272Z,99.10
2017-09-17T00:22:23.192Z,99.00
2017-09-17T00:25:28.679Z,99.20
2017-09-17T00:28:34.139Z,99.20
2017-09-17T00:31:40.223Z,99.30
2017-09-17T00:34:46.575Z,99.50
2017-09-17T00:37:51.632Z,99.30
2017-09-17T00:40:58.716Z,99.20
2017-09-17T00:44:04.557Z,98.70
2017-09-17T00:47:10.199Z,98.60
2017-09-17T00:50:15.296Z,98.60
2017-09-17T00:53:21.532Z,98.50
2017-09-17T00:56:27.910Z,98.40
2017-09-17T00:59:32.877Z,98.40
2017-09-17T01:02:50.874Z,98.00
2017-09-17T01:05:57.120Z,97.90
2017-09-17T01:09:01.951Z,97.90
2017-09-17T01:12:07.054Z,98.30
2017-09-17T01:15:12.211Z,98.00
2017-09-17T01:18:17.872Z,98.00
2017-09-17T01:21:25.439Z,98.00
2017-09-17T01:24:31.723Z,98.30
2017-09-17T01:27:36.539Z,98.30
2017-09-17T01:30:41.377Z,98.40
2017-09-17T01:33:47.024Z,98.60
2017-09-17T01:36:52.357Z,98.60
2017-09-17T01:39:57.173Z,98.60
2017-09-17T01:43:02.944Z,98.50
2017-09-17T01:46:10.027Z,98.30
2017-09-17T01:49:14.933Z,98.30
2017-09-17T01:52:20.012Z,98.10
2017-09-17T01:55:24.858Z,98.30
2017-09-17T01:58:32.564Z,98.30
2017-09-17T02:01:42.782Z,98.20
2017-09-17T02:04:52.229Z,98.20
2017-09-17T02:08:00.788Z,98.20
2017-09-17T02:11:08.706Z,98.10
2017-09-17T02:14:13.778Z,98.40
2017-09-17T02:17:18.694Z,98.50
2017-09-17T02:20:24.175Z,98.30
2017-09-17T02:23:30.923Z,98.20
2017-09-17T02:26:37.175Z,97.90
2017-09-17T02:29:42.567Z,97.90
2017-09-17T02:32:47.667Z,97.90
2017-09-17T02:35:52.638Z,98.70
2017-09-17T02:39:01.547Z,98.80
2017-09-17T02:42:06.562Z,98.80
2017-09-17T02:45:11.855Z,98.60
2017-09-17T02:48:17.536Z,97.10
2017-09-17T02:51:24.555Z,97.40
2017-09-17T02:54:29.663Z,98.30
2017-09-17T02:57:34.569Z,98.60
2017-09-17T03:00:40.116Z,99.10
2017-09-17T03:03:45.816Z,98.40
2017-09-17T03:06:53.044Z,98.40
2017-09-17T03:09:58.512Z,98.80
2017-09-17T03:13:03.551Z,98.60
2017-09-17T03:16:14.588Z,98.70
2017-09-17T03:19:21.541Z,98.20
2017-09-17T03:22:26.544Z,97.90
2017-09-17T03:25:31.487Z,97.80
2017-09-17T03:28:36.536Z,97.70
2017-09-17T03:31:44.631Z,98.10
2017-09-17T03:34:53.298Z,98.60
2017-09-17T03:38:00.481Z,98.60
2017-09-17T03:41:12.296Z,99.50
2017-09-17T03:44:21.204Z,99.50
2017-09-17T03:47:26.432Z,99.70
2017-09-17T03:50:32.609Z,99.90
2017-09-17T03:53:38.404Z,99.90
2017-09-17T03:56:44.008Z,99.90
2017-09-17T03:59:50.163Z,99.80
2017-09-17T04:02:56.004Z,99.70
2017-09-17T04:06:04.737Z,99.50
2017-09-17T04:09:10.084Z,99.40
2017-09-17T04:12:15.896Z,99.40
2017-09-17T04:15:20.825Z,99.50
2017-09-17T04:18:27.093Z,99.50
2017-09-17T04:21:32.768Z,99.50
2017-09-17T04:24:38.184Z,99.40
2017-09-17T04:27:43.364Z,99.40
2017-09-17T04:30:49.685Z,99.40
2017-09-17T04:33:54.632Z,99.40
2017-09-17T04:37:02.940Z,99.50
2017-09-17T04:40:09.120Z,99.50
2017-09-17T04:43:16.188Z,99.50
2017-09-17T04:46:21.848Z,99.40
2017-09-17T04:49:31.092Z,99.50
2017-09-17T04:52:36.304Z,99.70
2017-09-17T04:55:41.953Z,99.60
2017-09-17T04:58:47.171Z,99.60
2017-09-17T05:01:52.309Z,99.60
2017-09-17T05:04:57.512Z,99.80
2017-09-17T05:08:04.682Z,99.90
2017-09-17T05:11:10.083Z,99.90
2017-09-17T05:14:15.424Z,99.70
2017-09-17T05:17:21.074Z,99.70
2017-09-17T05:20:26.216Z,99.80
2017-09-17T05:23:30.983Z,99.70
2017-09-17T05:26:39.523Z,99.70
2017-09-17T05:29:45.475Z,99.50
2017-09-17T05:32:57.935Z,99.70
2017-09-17T05:36:03.396Z,99.60
2017-09-17T05:39:09.564Z,99.60
2017-09-17T05:42:15.428Z,99.60
2017-09-17T05:45:20.482Z,99.60
2017-09-17T05:48:26.312Z,99.00
2017-09-17T05:51:31.811Z,99.30
2017-09-17T05:54:37.420Z,98.90
2017-09-17T05:57:44.107Z,98.60
2017-09-17T06:00:51.359Z,98.60
2017-09-17T06:03:56.505Z,98.50
2017-09-17T06:07:01.611Z,98.30
2017-09-17T06:10:07.800Z,98.20
2017-09-17T06:13:17.572Z,98.20
2017-09-17T06:16:23.243Z,97.70
2017-09-17T06:19:29.295Z,97.70
2017-09-17T06:22:34.099Z,97.70
2017-09-17T06:25:39.205Z,97.50
2017-09-17T06:28:44.452Z,97.70
2017-09-17T06:31:49.559Z,97.70
2017-09-17T06:34:54.791Z,97.70
2017-09-17T06:38:00.536Z,97.60
2017-09-17T06:41:05.968Z,97.60
2017-09-17T06:44:14.913Z,97.60
2017-09-17T06:47:32.900Z,97.40
2017-09-17T06:50:38.287Z,97.30
2017-09-17T06:53:43.291Z,97.20
2017-09-17T06:56:48.645Z,96.90
2017-09-17T06:59:53.529Z,96.70
2017-09-17T07:02:58.504Z,96.60
2017-09-17T07:06:04.387Z,96.70
2017-09-17T07:09:10.704Z,96.50
2017-09-17T07:12:16.258Z,96.30
2017-09-17T07:15:21.994Z,95.80
2017-09-17T07:18:29.980Z,95.80
2017-09-17T07:21:44.632Z,95.10
2017-09-17T07:24:53.684Z,94.90
2017-09-17T07:27:59.237Z,94.90
2017-09-17T07:31:04.785Z,94.40
2017-09-17T07:34:10.436Z,94.10
2017-09-17T07:37:15.533Z,93.80
2017-09-17T07:40:21.248Z,92.90
2017-09-17T07:43:33.072Z,92.80
2017-09-17T07:46:38.450Z,92.80
2017-09-17T07:49:43.237Z,92.50
2017-09-17T07:52:48.846Z,92.50
2017-09-17T07:55:53.699Z,92.10
2017-09-17T07:58:59.244Z,91.60
2017-09-17T08:02:04.149Z,91.60
2017-09-17T08:05:22.002Z,91.40
2017-09-17T08:08:26.954Z,89.80
2017-09-17T08:11:31.840Z,90.30
2017-09-17T08:14:37.225Z,90.10
2017-09-17T08:17:42.467Z,90.10
2017-09-17T08:20:47.755Z,90.40
2017-09-17T08:23:53.932Z,89.20
2017-09-17T08:26:59.067Z,89.40
2017-09-17T08:30:04.892Z,89.80
2017-09-17T08:33:12.996Z,87.80
2017-09-17T08:36:18.583Z,86.70
2017-09-17T08:39:24.800Z,87.60
2017-09-17T08:42:30.122Z,86.90
2017-09-17T08:45:35.393Z,87.30
2017-09-17T08:48:40.306Z,87.00
2017-09-17T08:51:49.147Z,85.90
2017-09-17T08:54:55.888Z,85.00
2017-09-17T08:58:01.056Z,85.00
2017-09-17T09:01:06.351Z,83.80
2017-09-17T09:04:12.369Z,83.20
2017-09-17T09:07:17.620Z,83.40
2017-09-17T09:10:23.733Z,81.30
2017-09-17T09:13:28.831Z,81.20
2017-09-17T09:16:34.759Z,79.80
2017-09-17T09:19:44.543Z,78.60
2017-09-17T09:22:49.993Z,78.60
2017-09-17T09:25:55.552Z,78.80
2017-09-17T09:29:00.665Z,76.80
2017-09-17T09:32:05.923Z,77.80
2017-09-17T09:35:10.619Z,77.90
2017-09-17T09:38:15.577Z,76.80
2017-09-17T09:41:20.158Z,77.40
2017-09-17T09:44:28.647Z,76.30
2017-09-17T09:47:33.379Z,76.00
2017-09-17T09:50:38.945Z,73.80
2017-09-17T09:53:43.658Z,73.10
2017-09-17T09:56:49.164Z,74.30
2017-09-17T09:59:54.775Z,75.30
2017-09-17T10:02:59.900Z,77.30
2017-09-17T10:06:09.039Z,75.60
2017-09-17T10:09:26.380Z,75.70
2017-09-17T10:12:32.572Z,74.40
2017-09-17T10:15:44.191Z,74.20
2017-09-17T10:18:48.995Z,74.00
2017-09-17T10:21:55.189Z,76.50
2017-09-17T10:25:00.208Z,76.40
2017-09-17T10:28:04.857Z,77.90
2017-09-17T10:31:09.716Z,74.70
2017-09-17T10:34:15.833Z,72.70
2017-09-17T10:37:21.132Z,76.00
2017-09-17T10:40:26.500Z,74.90
2017-09-17T10:43:31.749Z,73.80
2017-09-17T10:46:36.728Z,71.90
2017-09-17T10:49:46.185Z,71.50
2017-09-17T10:52:51.836Z,71.50
2017-09-17T10:55:57.384Z,69.40
2017-09-17T10:59:03.243Z,66.50
2017-09-17T11:02:08.567Z,66.50
2017-09-17T11:05:13.416Z,67.00
2017-09-17T11:08:18.889Z,67.00
2017-09-17T11:11:25.052Z,66.50
2017-09-17T11:14:30.923Z,68.50
2017-09-17T11:17:38.908Z,68.50
2017-09-17T11:20:44.540Z,66.20
2017-09-17T11:23:50.004Z,68.40
2017-09-17T11:26:54.896Z,62.60
2017-09-17T11:30:00.633Z,63.50
2017-09-17T11:33:05.726Z,61.20
2017-09-17T11:36:10.463Z,62.00
2017-09-17T11:39:15.363Z,59.80
2017-09-17T11:42:21.148Z,60.90
2017-09-17T11:45:27.195Z,62.00
2017-09-17T11:48:35.992Z,62.00
2017-09-17T11:51:48.988Z,58.70
2017-09-17T11:54:54.132Z,58.00
2017-09-17T11:58:00.847Z,57.50
2017-09-17T12:01:06.468Z,57.50
2017-09-17T12:04:13.711Z,55.10
2017-09-17T12:07:19.279Z,55.50
2017-09-17T12:10:25.352Z,53.90
2017-09-17T12:13:30.755Z,53.80
2017-09-17T12:16:36.238Z,54.70
2017-09-17T12:19:42.092Z,55.80
2017-09-17T12:22:47.745Z,55.60
2017-09-17T12:25:52.695Z,53.00
2017-09-17T12:28:58.366Z,54.30
2017-09-17T12:32:10.289Z,53.20
2017-09-17T12:35:15.160Z,53.80
2017-09-17T12:38:25.285Z,54.50
2017-09-17T12:41:31.150Z,55.60
2017-09-17T12:44:36.575Z,54.90
2017-09-17T12:47:41.749Z,53.70
2017-09-17T12:50:47.943Z,54.20
2017-09-17T12:53:52.788Z,54.10
2017-09-17T12:56:58.131Z,58.00
2017-09-17T13:00:02.924Z,60.30
2017-09-17T13:03:08.847Z,66.30
2017-09-17T13:06:13.641Z,66.20
2017-09-17T13:09:19.257Z,68.00
2017-09-17T13:12:25.250Z,66.00
2017-09-17T13:15:30.164Z,65.90
2017-09-17T13:18:35.125Z,67.60
2017-09-17T13:21:41.019Z,67.70
2017-09-17T13:24:52.740Z,65.20
2017-09-17T13:27:58.188Z,64.00
2017-09-17T13:31:03.059Z,64.40
2017-09-17T13:34:09.569Z,65.40
2017-09-17T13:37:14.689Z,62.80
2017-09-17T13:40:20.530Z,62.70
2017-09-17T13:43:25.751Z,64.30
2017-09-17T13:46:31.168Z,65.30
2017-09-17T13:49:35.967Z,66.30
2017-09-17T13:52:41.088Z,65.40
2017-09-17T13:55:47.352Z,68.50
2017-09-17T13:58:52.533Z,68.50
2017-09-17T14:02:01.495Z,76.20
2017-09-17T14:05:20.793Z,76.90
2017-09-17T14:08:42.308Z,82.80
2017-09-17T14:11:47.868Z,81.10
2017-09-17T14:14:53.000Z,85.10
2017-09-17T14:17:58.178Z,80.00
2017-09-17T14:21:03.787Z,79.30
2017-09-17T14:24:10.133Z,77.80
2017-09-17T14:27:15.016Z,77.60
2017-09-17T14:30:21.144Z,77.80
2017-09-17T14:33:26.518Z,77.90
2017-09-17T14:36:32.723Z,75.70
2017-09-17T14:39:38.527Z,80.70
2017-09-17T14:42:44.000Z,80.60
2017-09-17T14:45:49.363Z,80.50
2017-09-17T14:48:54.900Z,80.50
2017-09-17T14:52:00.193Z,78.60
2017-09-17T14:55:06.035Z,74.70
2017-09-17T14:58:15.342Z,74.20
2017-09-17T15:01:20.260Z,69.40
2017-09-17T15:04:26.017Z,67.50
2017-09-17T15:07:31.540Z,67.50
2017-09-17T15:10:38.511Z,69.50
2017-09-17T15:13:44.133Z,67.70
2017-09-17T15:16:51.163Z,70.30
2017-09-17T15:19:56.456Z,70.40
2017-09-17T15:23:02.251Z,65.70
2017-09-17T15:26:07.924Z,68.40
2017-09-17T15:29:13.452Z,67.50
2017-09-17T15:32:18.816Z,68.90
2017-09-17T15:35:23.758Z,69.70
2017-09-17T15:38:29.376Z,69.20
2017-09-17T15:41:35.725Z,68.50
2017-09-17T15:44:44.985Z,67.70
2017-09-17T15:47:50.579Z,67.10
2017-09-17T15:50:56.114Z,68.30
2017-09-17T15:54:01.640Z,69.00
2017-09-17T15:57:07.875Z,67.10
2017-09-17T16:00:13.832Z,67.00
2017-09-17T16:03:20.404Z,69.30
2017-09-17T16:06:25.364Z,69.60
2017-09-17T16:09:30.436Z,70.20
2017-09-17T16:12:35.748Z,69.10
2017-09-17T16:15:41.462Z,69.50
2017-09-17T16:18:46.584Z,69.40
2017-09-17T16:21:52.356Z,71.20
2017-09-17T16:24:58.156Z,71.30
2017-09-17T16:28:04.124Z,73.20
2017-09-17T16:31:18.748Z,72.50
2017-09-17T16:34:25.104Z,72.50
2017-09-17T16:37:30.609Z,74.30
2017-09-17T16:40:36.051Z,74.30
2017-09-17T16:43:42.545Z,73.90
2017-09-17T16:46:50.431Z,71.80
2017-09-17T16:49:57.561Z,74.20
2017-09-17T16:53:03.375Z,74.40
2017-09-17T16:56:09.063Z,74.40
2017-09-17T16:59:14.245Z,75.40
2017-09-17T17:02:19.251Z,74.20
2017-09-17T17:05:24.220Z,74.80
2017-09-17T17:08:29.800Z,76.00
2017-09-17T17:11:34.792Z,76.00
2017-09-17T17:14:40.436Z,76.50
2017-09-17T17:17:46.624Z,80.40
2017-09-17T17:20:52.796Z,79.70
2017-09-17T17:23:59.016Z,82.00
2017-09-17T17:27:03.776Z,83.40
2017-09-17T17:30:09.192Z,84.30
2017-09-17T17:33:14.608Z,84.80
2017-09-17T17:36:19.704Z,85.10
2017-09-17T17:39:24.822Z,85.90
2017-09-17T17:42:31.260Z,86.70
2017-09-17T17:45:36.621Z,86.70
2017-09-17T17:48:43.440Z,87.00
2017-09-17T17:51:49.993Z,87.00
2017-09-17T17:54:55.768Z,88.90
2017-09-17T17:58:00.797Z,88.90
2017-09-17T18:01:09.921Z,89.40
2017-09-17T18:04:15.341Z,89.30
2017-09-17T18:07:20.434Z,90.00
2017-09-17T18:10:26.405Z,89.10
2017-09-17T18:13:31.841Z,89.10
2017-09-17T18:16:36.955Z,86.90
2017-09-17T18:19:43.235Z,87.90
2017-09-17T18:22:48.193Z,87.90
2017-09-17T18:25:53.396Z,88.60
2017-09-17T18:29:06.341Z,88.30
2017-09-17T18:32:12.980Z,88.10
2017-09-17T18:35:21.136Z,87.70
2017-09-17T18:38:26.080Z,87.80
2017-09-17T18:41:30.875Z,88.50
2017-09-17T18:44:37.510Z,90.00
2017-09-17T18:47:42.628Z,90.90
2017-09-17T18:50:53.625Z,91.50
2017-09-17T18:53:58.585Z,91.70
2017-09-17T18:57:05.797Z,91.50
2017-09-17T19:00:11.000Z,91.40
2017-09-17T19:03:16.622Z,91.30
2017-09-17T19:06:25.280Z,91.20
2017-09-17T19:09:33.618Z,91.40
2017-09-17T19:12:41.909Z,90.90
2017-09-17T19:15:47.543Z,90.90
2017-09-17T19:18:53.364Z,90.40
2017-09-17T19:21:58.449Z,90.70
2017-09-17T19:25:04.829Z,90.70
2017-09-17T19:28:11.356Z,90.80
2017-09-17T19:31:17.799Z,90.80
2017-09-17T19:34:23.015Z,91.00
2017-09-17T19:37:28.968Z,91.00
2017-09-17T19:40:41.109Z,91.20
2017-09-17T19:43:49.248Z,93.50
2017-09-17T19:46:56.184Z,94.90
2017-09-17T19:50:01.864Z,94.90
2017-09-17T19:53:07.148Z,95.40
2017-09-17T19:56:13.889Z,96.00
2017-09-17T19:59:19.019Z,96.00
2017-09-17T20:02:25.946Z,96.20
2017-09-17T20:05:31.721Z,96.30
2017-09-17T20:08:43.459Z,96.50
2017-09-17T20:11:48.363Z,96.30
2017-09-17T20:14:53.851Z,96.30
2017-09-17T20:17:59.413Z,96.60
2017-09-17T20:21:10.677Z,96.70
2017-09-17T20:24:15.832Z,96.90
2017-09-17T20:27:20.976Z,96.70
2017-09-17T20:30:32.741Z,97.20
2017-09-17T20:33:38.132Z,97.10
2017-09-17T20:36:50.785Z,96.40
2017-09-17T20:39:57.392Z,95.30
2017-09-17T20:43:05.915Z,95.90
2017-09-17T20:46:12.624Z,96.00
2017-09-17T20:49:17.717Z,96.70
2017-09-17T20:52:22.989Z,97.10
2017-09-17T20:55:30.481Z,97.50
2017-09-17T20:58:38.514Z,97.50
2017-09-17T21:01:43.325Z,97.80
2017-09-17T21:04:48.665Z,98.10
2017-09-17T21:07:54.168Z,98.10
2017-09-17T21:11:11.570Z,97.90
2017-09-17T21:14:16.956Z,98.00
2017-09-17T21:17:23.564Z,98.20
2017-09-17T21:20:28.620Z,98.10
2017-09-17T21:23:33.935Z,98.40
2017-09-17T21:26:38.817Z,98.50
2017-09-17T21:29:44.225Z,98.30
2017-09-17T21:32:51.144Z,98.20
2017-09-17T21:35:56.107Z,97.70
2017-09-17T21:39:01.813Z,97.30
2017-09-17T21:42:07.691Z,97.00
2017-09-17T21:45:14.172Z,97.70
2017-09-17T21:48:24.206Z,97.70
2017-09-17T21:51:33.679Z,97.90
2017-09-17T21:54:40.763Z,97.90
2017-09-17T21:57:45.896Z,98.00
2017-09-17T22:00:51.807Z,98.10
2017-09-17T22:03:57.037Z,98.10
2017-09-17T22:07:02.589Z,97.80
2017-09-17T22:10:15.792Z,97.90
2017-09-17T22:13:20.956Z,98.10
2017-09-17T22:16:26.315Z,98.20
2017-09-17T22:19:33.590Z,97.90
2017-09-17T22:22:45.467Z,97.90
2017-09-17T22:25:51.056Z,97.80
2017-09-17T22:28:57.258Z,97.20
2017-09-17T22:32:02.155Z,97.20
2017-09-17T22:35:07.483Z,96.60
2017-09-17T22:38:12.872Z,96.60
2017-09-17T22:41:18.888Z,96.40
2017-09-17T22:44:27.912Z,96.10
2017-09-17T22:47:33.062Z,96.20
2017-09-17T22:50:38.224Z,96.10
2017-09-17T22:53:44.268Z,96.10
2017-09-17T22:56:49.076Z,96.30
2017-09-17T22:59:54.703Z,96.10
2017-09-17T23:03:01.784Z,96.20
2017-09-17T23:06:07.115Z,96.20
2017-09-17T23:09:18.788Z,96.60
2017-09-17T23:12:24.964Z,96.60
2017-09-17T23:15:33.482Z,96.10
2017-09-17T23:18:38.307Z,96.10
2017-09-17T23:21:52.020Z,96.00
2017-09-17T23:24:58.279Z,96.90
2017-09-17T23:28:11.932Z,96.90
2017-09-17T23:31:17.184Z,97.00
2017-09-17T23:34:37.693Z,96.90
2017-09-17T23:37:42.722Z,96.80
2017-09-17T23:40:48.345Z,96.80
2017-09-17T23:43:54.374Z,97.00
2017-09-17T23:46:59.579Z,97.00
2017-09-17T23:50:05.162Z,97.20
2017-09-17T23:53:11.833Z,97.10
2017-09-17T23:56:30.756Z,97.40
2017-09-17T23:59:35.600Z,97.10
